createdAt,value
2023-03-06T00:02:44.734Z,3.00
2023-03-06T00:08:46.580Z,3.00
2023-03-06T00:14:48.533Z,3.00
2023-03-06T00:20:50.379Z,3.00
2023-03-06T00:26:52.461Z,3.00
2023-03-06T00:32:55.407Z,2.90
2023-03-06T00:38:57.290Z,2.90
2023-03-06T00:44:59.119Z,2.80
2023-03-06T00:51:01.304Z,2.80
2023-03-06T00:57:03.112Z,2.70
2023-03-06T01:03:05.314Z,2.60
2023-03-06T01:09:07.178Z,2.70
2023-03-06T01:15:09.631Z,2.70
2023-03-06T01:21:12.127Z,2.60
2023-03-06T01:27:14.143Z,2.60
2023-03-06T01:33:18.372Z,2.70
2023-03-06T01:39:20.308Z,2.60
2023-03-06T01:45:25.182Z,2.60
2023-03-06T01:51:32.231Z,2.50
2023-03-06T01:57:42.609Z,2.50
2023-03-06T02:03:46.168Z,2.50
2023-03-06T02:09:47.987Z,2.40
2023-03-06T02:15:50.108Z,2.40
2023-03-06T02:21:51.950Z,2.30
2023-03-06T02:27:53.836Z,2.30
2023-03-06T02:34:14.374Z,2.30
2023-03-06T02:40:17.310Z,2.30
2023-03-06T02:46:19.384Z,2.30
2023-03-06T02:52:21.289Z,2.20
2023-03-06T02:58:23.214Z,2.20
2023-03-06T03:04:25.504Z,2.20
2023-03-06T03:10:27.354Z,2.20
2023-03-06T03:16:29.423Z,2.20
2023-03-06T03:22:31.354Z,2.20
2023-03-06T03:28:33.318Z,2.20
2023-03-06T03:34:35.475Z,2.20
2023-03-06T03:40:39.180Z,2.10
2023-03-06T03:46:41.041Z,2.00
2023-03-06T03:52:42.971Z,2.00
2023-03-06T03:58:44.770Z,1.90
2023-03-06T04:04:46.889Z,1.80
2023-03-06T04:10:48.710Z,1.70
2023-03-06T04:16:50.818Z,1.70
2023-03-06T04:22:52.662Z,1.60
2023-03-06T04:28:56.277Z,1.60
2023-03-06T04:34:58.270Z,1.60
2023-03-06T04:41:00.152Z,1.50
2023-03-06T04:47:02.216Z,1.60
2023-03-06T04:53:04.788Z,1.50
2023-03-06T04:59:06.689Z,1.40
2023-03-06T05:05:08.798Z,1.40
2023-03-06T05:11:10.736Z,1.60
2023-03-06T05:17:12.812Z,1.60
2023-03-06T05:23:14.576Z,1.60
2023-03-06T05:29:16.343Z,1.50
2023-03-06T05:35:23.599Z,1.50
2023-03-06T05:41:25.377Z,1.60
2023-03-06T05:47:27.229Z,1.60
2023-03-06T05:53:29.559Z,1.60
2023-03-06T05:59:33.066Z,1.50
2023-03-06T06:05:39.564Z,1.60
2023-03-06T06:11:41.388Z,1.60
2023-03-06T06:17:43.596Z,1.60
2023-03-06T06:23:45.398Z,1.70
2023-03-06T06:29:50.949Z,1.70
2023-03-06T06:35:53.222Z,1.70
2023-03-06T06:42:14.649Z,1.70
2023-03-06T06:48:18.072Z,1.80
2023-03-06T06:54:22.222Z,1.80
2023-03-06T07:00:24.601Z,1.90
2023-03-06T07:06:26.891Z,2.00
2023-03-06T07:12:32.377Z,2.20
2023-03-06T07:18:34.131Z,2.20
2023-03-06T07:24:36.144Z,2.10
2023-03-06T07:30:40.538Z,2.20
2023-03-06T07:36:42.649Z,2.20
2023-03-06T07:42:44.474Z,2.20
2023-03-06T07:48:46.303Z,2.30
2023-03-06T07:54:49.065Z,2.20
2023-03-06T08:00:51.057Z,2.20
2023-03-06T08:06:57.523Z,2.20
2023-03-06T08:12:59.709Z,2.20
2023-03-06T08:19:01.657Z,2.30
2023-03-06T08:25:05.514Z,2.30
2023-03-06T08:31:18.029Z,2.30
2023-03-06T08:37:20.095Z,2.20
2023-03-06T08:43:22.331Z,2.00
2023-03-06T08:49:24.176Z,2.00
2023-03-06T08:55:28.137Z,1.90
2023-03-06T09:01:34.075Z,1.90
2023-03-06T09:07:36.258Z,2.00
2023-03-06T09:13:38.961Z,2.10
2023-03-06T09:19:40.865Z,2.20
2023-03-06T09:25:42.620Z,2.10
2023-03-06T09:31:45.272Z,2.10
2023-03-06T09:37:47.095Z,2.10
2023-03-06T09:43:53.071Z,2.10
2023-03-06T09:50:20.863Z,2.20
2023-03-06T09:56:31.077Z,2.00
2023-03-06T10:02:40.151Z,1.80
2023-03-06T10:09:00.720Z,1.90
2023-03-06T10:15:25.466Z,1.90
2023-03-06T10:21:33.327Z,1.90
2023-03-06T10:27:50.281Z,1.90
2023-03-06T10:33:57.182Z,2.00
2023-03-06T10:40:08.431Z,2.00
2023-03-06T10:46:12.987Z,2.10
2023-03-06T10:52:15.080Z,2.20
2023-03-06T10:58:19.645Z,2.20
2023-03-06T11:04:24.351Z,2.60
2023-03-06T11:10:27.159Z,2.60
2023-03-06T11:16:31.014Z,2.50
2023-03-06T11:22:33.859Z,2.50
2023-03-06T11:28:49.968Z,2.50
2023-03-06T11:34:54.290Z,2.60
2023-03-06T11:41:03.373Z,2.60
2023-03-06T11:47:05.110Z,2.90
2023-03-06T11:53:12.023Z,3.00
2023-03-06T11:59:53.851Z,3.10
2023-03-06T12:06:10.532Z,3.50
2023-03-06T12:12:39.326Z,3.90
2023-03-06T12:19:07.664Z,4.20
2023-03-06T12:25:34.556Z,4.40
2023-03-06T12:31:56.079Z,4.30
2023-03-06T12:38:27.103Z,4.50
2023-03-06T12:44:50.134Z,4.30
2023-03-06T12:50:52.705Z,4.60
2023-03-06T12:56:56.795Z,4.70
2023-03-06T13:03:10.556Z,4.60
2023-03-06T13:09:23.965Z,4.50
2023-03-06T13:15:38.089Z,4.40
2023-03-06T13:21:55.262Z,4.40
2023-03-06T13:27:57.098Z,4.50
2023-03-06T13:34:01.855Z,4.40
2023-03-06T13:40:10.263Z,4.40
2023-03-06T13:46:35.268Z,4.80
2023-03-06T13:52:45.468Z,5.20
2023-03-06T13:59:23.289Z,5.30
2023-03-06T14:05:34.740Z,5.20
2023-03-06T14:11:42.394Z,5.20
2023-03-06T14:18:01.426Z,4.90
2023-03-06T14:24:04.809Z,4.90
2023-03-06T14:30:15.773Z,5.00
2023-03-06T14:36:20.983Z,4.90
2023-03-06T14:42:27.514Z,5.00
2023-03-06T14:48:45.260Z,5.00
2023-03-06T14:54:47.949Z,5.10
2023-03-06T15:01:01.258Z,5.10
2023-03-06T15:07:09.296Z,5.00
2023-03-06T15:13:23.631Z,4.80
2023-03-06T15:19:25.573Z,4.80
2023-03-06T15:25:32.635Z,4.70
2023-03-06T15:31:36.578Z,4.60
2023-03-06T15:37:38.389Z,4.90
2023-03-06T15:43:40.846Z,4.90
2023-03-06T15:49:42.816Z,4.90
2023-03-06T15:55:45.128Z,4.80
2023-03-06T16:01:47.620Z,4.70
2023-03-06T16:07:49.545Z,4.80
2023-03-06T16:13:53.139Z,4.70
2023-03-06T16:19:55.266Z,4.60
2023-03-06T16:25:57.211Z,4.40
2023-03-06T16:32:01.812Z,4.30
2023-03-06T16:38:04.260Z,4.10
2023-03-06T16:44:07.856Z,4.00
2023-03-06T16:50:29.955Z,3.80
2023-03-06T16:56:31.969Z,3.60
2023-03-06T17:02:35.718Z,3.50
2023-03-06T17:08:37.822Z,3.30
2023-03-06T17:14:39.914Z,3.20
2023-03-06T17:20:50.167Z,3.10
2023-03-06T17:26:52.224Z,3.10
2023-03-06T17:32:54.291Z,3.00
2023-03-06T17:39:00.488Z,3.00
2023-03-06T17:45:02.318Z,2.90
2023-03-06T17:51:04.904Z,2.80
2023-03-06T17:57:06.849Z,2.80
2023-03-06T18:03:09.795Z,2.80
2023-03-06T18:09:11.567Z,2.70
2023-03-06T18:15:13.462Z,2.60
2023-03-06T18:21:16.832Z,2.50
2023-03-06T18:27:19.492Z,2.50
2023-03-06T18:33:21.389Z,2.50
2023-03-06T18:39:23.225Z,2.40
2023-03-06T18:45:25.230Z,2.40
2023-03-06T18:51:27.656Z,2.30
2023-03-06T18:57:30.508Z,2.30
2023-03-06T19:03:32.433Z,2.20
2023-03-06T19:09:34.298Z,2.20
2023-03-06T19:15:46.836Z,2.20
2023-03-06T19:21:53.879Z,2.20
2023-03-06T19:27:55.773Z,2.20
2023-03-06T19:33:57.714Z,2.20
2023-03-06T19:40:01.762Z,2.20
2023-03-06T19:46:03.805Z,2.20
2023-03-06T19:52:08.603Z,2.30
2023-03-06T19:58:11.449Z,2.30
2023-03-06T20:04:13.331Z,2.40
2023-03-06T20:10:16.152Z,2.40
2023-03-06T20:16:18.860Z,2.40
2023-03-06T20:22:20.867Z,2.40
2023-03-06T20:28:23.373Z,2.40
2023-03-06T20:34:25.843Z,2.40
2023-03-06T20:40:28.019Z,2.50
2023-03-06T20:46:30.295Z,2.50
2023-03-06T20:52:32.405Z,2.50
2023-03-06T20:58:34.192Z,2.50
2023-03-06T21:04:38.619Z,2.50
2023-03-06T21:10:40.812Z,2.50
2023-03-06T21:16:43.130Z,2.50
2023-03-06T21:22:44.994Z,2.50
2023-03-06T21:28:47.298Z,2.40
2023-03-06T21:34:49.145Z,2.40
2023-03-06T21:40:51.109Z,2.40
2023-03-06T21:46:52.919Z,2.40
2023-03-06T21:52:56.680Z,2.40
2023-03-06T21:58:59.055Z,2.40
2023-03-06T22:05:01.040Z,2.40
2023-03-06T22:11:07.828Z,2.40
2023-03-06T22:17:09.612Z,2.30
2023-03-06T22:23:12.136Z,2.30
2023-03-06T22:29:13.953Z,2.30
2023-03-06T22:35:15.965Z,2.30
2023-03-06T22:41:20.219Z,2.40
2023-03-06T22:47:22.068Z,2.40
2023-03-06T22:53:23.897Z,2.50
2023-03-06T22:59:25.823Z,2.50
2023-03-06T23:05:29.462Z,2.40
2023-03-06T23:11:31.872Z,2.50
2023-03-06T23:17:34.150Z,2.50
2023-03-06T23:23:37.534Z,2.40
2023-03-06T23:29:39.351Z,2.30
2023-03-06T23:35:41.490Z,2.40
2023-03-06T23:41:43.310Z,2.30
2023-03-06T23:47:45.067Z,2.30
2023-03-06T23:53:48.348Z,2.20
2023-03-06T23:59:50.323Z,2.20
